createdAt,value
2019-05-02T00:02:34.158Z,14.87
2019-05-02T00:05:27.459Z,12.77
2019-05-02T00:08:16.138Z,13.37
2019-05-02T00:11:08.722Z,17.40
2019-05-02T00:13:59.678Z,13.00
2019-05-02T00:16:50.515Z,19.97
2019-05-02T00:19:45.017Z,14.27
2019-05-02T00:22:32.945Z,12.30
2019-05-02T00:25:23.298Z,15.70
2019-05-02T00:28:14.034Z,15.00
2019-05-02T00:31:07.504Z,14.27
2019-05-02T00:33:55.357Z,12.50
2019-05-02T00:36:46.179Z,15.87
2019-05-02T00:39:37.018Z,12.10
2019-05-02T00:42:26.216Z,12.50
2019-05-02T00:45:18.599Z,14.77
2019-05-02T00:48:23.271Z,17.17
2019-05-02T00:51:14.960Z,12.00
2019-05-02T00:54:06.057Z,13.10
2019-05-02T00:56:56.138Z,13.77
2019-05-02T00:59:46.789Z,12.93
2019-05-02T01:02:44.895Z,13.90
2019-05-02T01:05:38.521Z,14.80
2019-05-02T01:08:26.101Z,11.13
2019-05-02T01:11:16.097Z,11.60
2019-05-02T01:14:06.159Z,15.37
2019-05-02T01:16:56.798Z,11.70
2019-05-02T01:19:51.507Z,13.80
2019-05-02T01:22:39.118Z,15.80
2019-05-02T01:25:29.259Z,11.90
2019-05-02T01:28:37.942Z,18.00
2019-05-02T01:31:49.914Z,14.07
2019-05-02T01:35:13.051Z,16.03
2019-05-02T01:38:10.998Z,11.90
2019-05-02T01:41:00.879Z,13.27
2019-05-02T01:43:54.955Z,15.53
2019-05-02T01:46:42.983Z,15.83
2019-05-02T01:49:32.939Z,13.10
2019-05-02T01:52:23.660Z,12.80
2019-05-02T01:55:17.104Z,13.37
2019-05-02T01:58:06.758Z,12.07
2019-05-02T16:27:01.601Z,4.30
2019-05-02T16:29:51.595Z,2.20
2019-05-02T16:32:46.106Z,4.47
2019-05-02T16:35:36.406Z,2.60
2019-05-02T16:38:26.760Z,3.12
2019-05-02T16:41:18.245Z,2.50
2019-05-02T16:44:09.427Z,4.92
2019-05-02T16:47:02.146Z,3.72
2019-05-02T16:49:54.741Z,4.22
2019-05-02T16:52:47.180Z,3.10
2019-05-02T16:55:34.607Z,4.67
2019-05-02T16:58:24.416Z,6.90
2019-05-02T17:01:19.633Z,4.67
2019-05-02T17:04:06.779Z,3.22
2019-05-02T17:07:02.150Z,4.03
2019-05-02T17:10:13.526Z,5.40
2019-05-02T17:13:00.861Z,12.28
2019-05-02T17:15:52.267Z,2.62
2019-05-02T17:18:43.444Z,10.25
2019-05-02T17:21:55.434Z,4.22
2019-05-02T17:24:36.165Z,3.58
2019-05-02T17:27:25.630Z,3.55
2019-05-02T17:30:17.365Z,4.37
2019-05-02T17:33:11.712Z,2.40
2019-05-02T17:35:58.718Z,3.80
2019-05-02T17:38:49.044Z,5.60
2019-05-02T17:41:42.264Z,2.90
2019-05-02T17:44:30.466Z,4.80
2019-05-02T17:47:19.996Z,7.27
2019-05-02T17:50:19.550Z,7.00
2019-05-02T17:53:09.305Z,4.43
2019-05-02T17:56:01.705Z,3.23
2019-05-02T17:58:54.347Z,5.33
2019-05-02T18:01:46.956Z,3.07
2019-05-02T18:04:37.965Z,5.43
2019-05-02T18:07:31.868Z,3.93
2019-05-02T18:10:23.028Z,5.57
2019-05-02T18:13:14.347Z,11.80
2019-05-02T18:16:07.841Z,26.30
2019-05-02T18:18:56.363Z,24.87
2019-05-02T18:21:46.645Z,26.70
2019-05-02T18:24:41.781Z,12.87
2019-05-02T18:27:28.643Z,7.20
2019-05-02T18:30:24.959Z,9.80
2019-05-02T18:33:14.194Z,9.43
2019-05-02T18:36:04.625Z,8.60
2019-05-02T18:39:00.310Z,9.03
2019-05-02T18:41:46.462Z,7.23
2019-05-02T18:44:36.956Z,9.90
2019-05-02T18:47:26.665Z,8.43
2019-05-02T18:50:36.904Z,7.27
2019-05-02T18:53:27.147Z,7.43
2019-05-02T18:56:15.688Z,3.77
2019-05-02T18:59:06.667Z,4.20
2019-05-02T19:01:59.529Z,5.23
2019-05-02T19:04:51.642Z,3.80
2019-05-02T19:07:42.863Z,3.77
2019-05-02T19:10:37.093Z,4.23
2019-05-02T19:13:26.009Z,5.07
2019-05-02T19:16:19.434Z,4.23
2019-05-02T19:19:08.639Z,5.93
2019-05-02T19:21:58.927Z,4.63
2019-05-02T19:24:52.254Z,3.00
2019-05-02T19:27:59.504Z,11.30
2019-05-02T19:31:06.870Z,4.97
2019-05-02T19:33:55.045Z,4.27
2019-05-02T19:36:48.093Z,5.63
2019-05-02T19:39:47.205Z,6.83
2019-05-02T19:42:31.232Z,5.30
2019-05-02T19:45:24.038Z,9.13
2019-05-02T19:48:14.845Z,5.37
2019-05-02T19:51:05.284Z,7.77
2019-05-02T19:53:59.521Z,4.43
2019-05-02T19:56:48.385Z,7.00
2019-05-02T19:59:38.964Z,9.20
2019-05-02T20:02:32.618Z,6.87
2019-05-02T20:05:25.474Z,6.73
2019-05-02T20:08:19.871Z,6.17
2019-05-02T20:11:06.545Z,11.20
2019-05-02T20:14:00.536Z,4.93
2019-05-02T20:16:52.897Z,6.47
2019-05-02T20:19:45.046Z,5.77
2019-05-02T20:22:36.314Z,5.87
2019-05-02T20:25:29.855Z,5.80
2019-05-02T20:28:18.625Z,6.93
2019-05-02T20:31:09.785Z,4.23
2019-05-02T20:34:02.399Z,10.03
2019-05-02T20:36:52.886Z,11.30
2019-05-02T20:39:42.785Z,7.50
2019-05-02T20:42:32.291Z,6.43
2019-05-02T20:45:22.776Z,6.63
2019-05-02T20:48:14.485Z,5.30
2019-05-02T20:51:04.545Z,4.47
2019-05-02T20:53:54.424Z,5.03
2019-05-02T20:56:44.526Z,6.37
2019-05-02T20:59:35.505Z,6.60
2019-05-02T21:02:26.025Z,9.50
2019-05-02T21:05:23.639Z,11.20
2019-05-02T21:08:48.065Z,7.87
2019-05-02T21:11:38.485Z,11.07
2019-05-02T21:14:28.178Z,12.00
2019-05-02T21:17:19.566Z,6.60
2019-05-02T21:20:12.325Z,6.30
2019-05-02T21:23:02.058Z,6.67
2019-05-02T21:25:52.479Z,6.37
2019-05-02T21:28:42.787Z,6.63
2019-05-02T21:31:33.545Z,8.97
2019-05-02T21:34:25.045Z,6.00
2019-05-02T21:37:15.526Z,7.37
2019-05-02T21:40:06.072Z,7.47
2019-05-02T21:42:57.545Z,6.43
2019-05-02T21:45:47.286Z,8.00
2019-05-02T21:48:37.506Z,7.17
2019-05-02T21:51:51.646Z,8.33
2019-05-02T21:54:47.971Z,9.93
2019-05-02T21:57:37.983Z,6.80
2019-05-02T22:01:06.325Z,8.87
2019-05-02T22:03:57.644Z,6.97
2019-05-02T22:06:48.212Z,6.00
2019-05-02T22:09:38.786Z,8.93
2019-05-02T22:12:28.553Z,5.90
2019-05-02T22:15:18.149Z,6.03
2019-05-02T22:18:08.726Z,7.37
2019-05-02T22:20:58.666Z,6.60
2019-05-02T22:23:48.577Z,7.07
2019-05-02T22:26:38.785Z,8.93
2019-05-02T22:29:30.006Z,5.90
2019-05-02T22:32:19.924Z,7.77
2019-05-02T22:35:11.842Z,6.20
2019-05-02T22:38:09.345Z,6.00
2019-05-02T22:41:01.693Z,6.10
2019-05-02T22:43:50.749Z,6.63
2019-05-02T22:46:43.251Z,7.17
2019-05-02T22:49:35.425Z,10.57
2019-05-02T22:52:25.218Z,10.80
2019-05-02T22:55:16.544Z,6.17
2019-05-02T22:58:07.124Z,7.33
2019-05-02T23:00:57.345Z,8.03
2019-05-02T23:03:46.966Z,8.30
2019-05-02T23:06:37.505Z,6.83
2019-05-02T23:09:27.629Z,6.90
2019-05-02T23:12:18.326Z,6.33
2019-05-02T23:15:09.372Z,10.90
2019-05-02T23:18:01.534Z,6.03
2019-05-02T23:20:52.628Z,10.07
2019-05-02T23:23:42.785Z,8.50
2019-05-02T23:26:51.795Z,5.60
2019-05-02T23:29:42.563Z,6.63
2019-05-02T23:32:32.566Z,10.03
2019-05-02T23:35:23.585Z,7.27
2019-05-02T23:38:13.029Z,9.40
2019-05-02T23:41:04.125Z,12.57
2019-05-02T23:43:54.625Z,15.07
2019-05-02T23:46:44.575Z,9.20
2019-05-02T23:49:35.106Z,10.53
2019-05-02T23:52:25.026Z,7.03
2019-05-02T23:55:15.266Z,7.20
2019-05-02T23:58:05.806Z,12.80
